MDSDMDST

Guest
Details From MDSD - Las Americas Intl
To MDST - Santiago Cibao Intl
Flight Number -
Tags generated
Created
Modified
Stats Distance 79 nm / 147 km
Max Altitude 3,000 ft / 914 m
Waypoints 3
Social Downloads 2
Likes 0
Share

Download

Looking for another format? Having issues loading an existing format? Contact us
Advertisement - Login to hide

Notes

Basic altitude profile: - Ascent Rate: 2500ft/min - Ascent Speed: 250kts - Cruise Altitude: 35000ft - Cruise Speed: 420kts - Descent Rate: 1500ft/min - Descent Speed: 250kts Options: - Use NATs: yes - Use PACOTS: yes - Use low airways: yes - Use high airways: yes

Route

MDSD BIBAS MDST

ID Type Via Altitude (ft/m) Position (lat/lon) Dist (leg/tot) Name
O MDSD APT - 0 / 0 18.42966 / -69.66893 - / 0 nm Las Americas Intl
BIBAS FIX - 3,000 / 914 19.23028 / -70.43611 64 / 64 nm
O MDST APT - 0 / 0 19.40609 / -70.60469 14 / 79 nm Santiago Cibao Intl

Altitude Profile

Advertisement - Login to hide

MDSD

Details ICAO MDSD (SDQ)
Name Las Americas Intl
Region Dominican Republic
Timezone America/Santo_Domingo (UTC-4.0)
Stats Elevation 59 ft / 18 m (AMSL)
Location 18.429600° -69.668900°
Runways 1
Magnetic Variation 11.777° W

METAR

MDSD 102100Z 13006KT 9999 TS FEW016CB SCT018 BKN070 28/24 Q1016 CB/NE/NW/N

Decode

TAF

TAF TAF MDSD 101600Z 1018/1118 15008KT 9999 SCT018 BKN070 FM101800 8000 -RA SCT016 BKN070 PROB40 1100/1106 TSRA FEW014CB BKN014 BKN070 BECMG 1101/1103 06004KT

Decode

Departure Runways

ID Width Length Bearing (true/mag) Surface Threshold Overrun Markings Lighting
17 197 ft / 60 m 11,014 ft / 3,357 m 160.76° / 172.54° ASPHALT 0 ft / 0 m 43 ft / 13 m PREC-APP CENTERLINE EDGE THRESHOLD SSALR REIL-OMNI
35 197 ft / 60 m 11,014 ft / 3,357 m 340.76° / 352.54° ASPHALT 0 ft / 0 m 43 ft / 13 m PREC-APP CENTERLINE EDGE THRESHOLD SSALR REIL-OMNI

MDST

Details ICAO MDST (STI)
Name Cibao Intl
Region Dominican Republic
Timezone America/Santo_Domingo (UTC-4.0)
Stats Elevation 567 ft / 173 m (AMSL)
Location 19.406100° -70.604700°
Runways 1
Magnetic Variation 11.417° W

METAR

MDST 102100Z 13008KT 100V170 8000 VCSH FEW018CB SCT020 BKN300 26/18 Q1016 VCSH/NE CB/E/SE/S/SW/W

Decode

TAF

TAF MDST 101600Z 1018/1118 12010KT 9999 SCT022 BKN300 PROB30 1018/1100 7000 SHRA SCT016 BKN070

Decode

Destination Runways

ID Width Length Bearing (true/mag) Surface Threshold Overrun Markings Lighting
11 148 ft / 45 m 8,610 ft / 2,625 m 103.16° / 114.57° ASPHALT 0 ft / 0 m 184 ft / 56 m PREC-APP CENTERLINE EDGE THRESHOLD MALSR REIL-OMNI
29 148 ft / 45 m 8,610 ft / 2,625 m 283.16° / 294.58° ASPHALT 108 ft / 33 m 194 ft / 59 m PREC-APP CENTERLINE EDGE THRESHOLD REIL-OMNI

Approach Navaids

Runway Type Ident Frequency Range Bearing (true/mag) Slope Elevation
11 LOC-ILS EXP 109.30 MHz 18 nm / 33 km 103.11° / 114.52 ° - 565 ft / 172 m (AMSL)
11 GS EXP 109.30 MHz 10 nm / 19 km 103.16° / 114.57 ° 2.80° 565 ft / 172 m (AMSL)
11 DME EXP 109.30 MHz 18 nm / 33 km - - 563 ft / 172 m (AMSL)

Popular Alternatives